.
WxDataArchive / Data Records for 2012-01-28
2012-01-27 January 2012 2012-01-29

Data Records for Saturday, 28 January 2012

Time	Temp	Chill	HIndex	Humid	Dewpt	 Wind 	HiWind	WindDir	Rain 	Barom 
-----	----	-----	------	-----	-----	------	------	-------	-----	----- 
00:00	33.1	33.1	33.1	84	28.8	0	2	248	0.00	29.957 
00:05	33.1	33.1	33.1	84	28.8	0	2	248	0.00	29.957 
00:10	33.2	33.2	33.2	84	28.9	0	1	248	0.00	29.957 
00:15	33.4	33.4	33.4	84	29.1	0	2	248	0.00	29.956 
00:20	33.5	33.5	33.5	84	29.2	0	3	248	0.00	29.956 
00:25	33.7	33.7	33.7	84	29.4	0	2	248	0.00	29.956 
00:30	33.7	33.7	33.7	84	29.4	1	2	248	0.00	29.961 
00:35	33.8	33.8	33.8	84	29.5	1	3	248	0.00	29.961 
00:40	34.0	34.0	34.0	84	29.7	2	4	248	0.00	29.961 
00:45	33.8	33.8	33.8	85	29.8	0	3	225	0.00	29.951 
00:50	33.7	33.7	33.7	86	30.0	1	5	248	0.00	29.951 
00:55	33.5	33.5	33.5	87	30.1	1	3	248	0.00	29.951 
01:00	33.4	33.4	33.4	88	30.2	0	2	248	0.00	29.942 
01:05	33.4	33.4	33.4	88	30.2	0	1	248	0.00	29.942 
01:10	33.2	33.2	33.2	89	30.3	0	2	248	0.00	29.942 
01:15	33.1	33.1	33.1	89	30.2	0	2	248	0.00	29.928 
01:20	33.1	33.1	33.1	90	30.5	0	2	248	0.00	29.928 
01:25	33.1	33.1	33.1	90	30.5	0	2	248	0.00	29.928 
01:30	32.9	32.9	32.9	90	30.3	0	2	248	0.00	29.921 
01:35	32.9	32.9	32.9	91	30.6	0	2	248	0.00	29.921 
01:40	32.9	32.9	32.9	91	30.6	0	2	248	0.00	29.921 
01:45	32.9	32.9	32.9	91	30.6	0	1	248	0.00	29.921 
01:50	32.9	32.9	32.9	91	30.6	0	3	248	0.00	29.921 
01:55	32.9	32.9	32.9	92	30.8	1	3	248	0.00	29.921 
02:00	32.9	32.9	32.9	92	30.8	1	3	248	0.00	29.923 
02:05	33.1	33.1	33.1	92	31.0	1	3	248	0.00	29.923 
02:10	33.1	33.1	33.1	92	31.0	1	3	248	0.00	29.923 
02:15	33.1	33.1	33.1	92	31.0	2	5	248	0.00	29.921 
02:20	32.9	32.9	32.9	92	30.8	1	3	248	0.00	29.921 
02:25	32.9	32.9	32.9	92	30.8	1	4	270	0.00	29.921 
02:30	32.9	32.9	32.9	92	30.8	0	2	270	0.00	29.912 
02:35	32.9	32.9	32.9	92	30.8	1	2	270	0.00	29.912 
02:40	32.9	32.9	32.9	92	30.8	1	2	270	0.00	29.912 
02:45	32.9	32.9	32.9	93	31.1	1	3	270	0.00	29.916 
02:50	32.9	32.9	32.9	93	31.1	0	3	248	0.00	29.916 
02:55	32.9	32.9	32.9	93	31.1	1	5	248	0.00	29.916 
03:00	32.9	32.9	32.9	93	31.1	1	5	248	0.00	29.911 
03:05	32.9	32.9	32.9	93	31.1	1	4	248	0.00	29.911 
03:10	32.9	32.9	32.9	93	31.1	0	2	225	0.00	29.911 
03:15	32.9	32.9	32.9	93	31.1	0	1	225	0.00	29.897 
03:20	32.9	32.9	32.9	93	31.1	0	3	248	0.00	29.897 
03:25	32.8	32.8	32.8	93	31.0	0	3	248	0.00	29.897 
03:30	32.8	32.8	32.8	93	31.0	0	1	248	0.00	29.896 
03:35	32.8	32.8	32.8	93	31.0	1	6	248	0.00	29.896 
03:40	32.8	32.8	32.8	93	31.0	1	6	270	0.00	29.896 
03:45	32.8	32.8	32.8	93	31.0	1	4	248	0.00	29.891 
03:50	32.8	32.8	32.8	93	31.0	1	5	270	0.00	29.891 
03:55	32.8	32.8	32.8	93	31.0	1	4	248	0.00	29.891 
04:00	32.8	32.8	32.8	93	31.0	1	3	248	0.00	29.884 
04:05	32.8	32.8	32.8	93	31.0	1	4	248	0.00	29.884 
04:10	32.8	32.8	32.8	93	31.0	1	5	270	0.00	29.884 
04:15	32.8	32.8	32.8	93	31.0	1	3	248	0.00	29.880 
04:20	32.8	32.8	32.8	93	31.0	1	5	248	0.00	29.880 
04:25	32.8	32.8	32.8	93	31.0	1	3	248	0.00	29.880 
04:30	32.9	32.9	32.9	93	31.1	1	4	248	0.00	29.875 
04:35	32.9	32.9	32.9	93	31.1	1	3	248	0.00	29.875 
04:40	32.9	32.9	32.9	93	31.1	1	3	248	0.00	29.875 
04:45	32.9	32.9	32.9	93	31.1	1	4	248	0.00	29.873 
04:50	32.9	32.9	32.9	93	31.1	1	3	248	0.00	29.873 
04:55	32.9	32.9	32.9	93	31.1	1	4	248	0.00	29.873 
05:00	33.1	33.1	33.1	93	31.3	1	4	248	0.00	29.872 
05:05	33.1	33.1	33.1	93	31.3	2	6	248	0.00	29.872 
05:10	33.1	33.1	33.1	93	31.3	1	4	248	0.00	29.872 
05:15	33.1	33.1	33.1	93	31.3	1	6	248	0.00	29.861 
05:20	33.1	33.1	33.1	93	31.3	1	5	248	0.00	29.861 
05:25	33.1	33.1	33.1	93	31.3	1	5	248	0.00	29.861 
05:30	33.1	33.1	33.1	92	31.0	1	4	248	0.00	29.855 
05:35	33.1	33.1	33.1	92	31.0	1	4	248	0.00	29.855 
05:40	33.1	33.1	33.1	92	31.0	1	5	248	0.00	29.855 
05:45	33.1	33.1	33.1	92	31.0	1	2	248	0.00	29.845 
05:50	33.1	33.1	33.1	92	31.0	1	5	248	0.00	29.845 
05:55	32.9	32.9	32.9	92	30.8	0	2	225	0.00	29.845 
06:00	32.9	32.9	32.9	92	30.8	1	3	248	0.00	29.845 
06:05	32.8	32.8	32.8	92	30.7	1	3	248	0.00	29.845 
06:10	32.8	32.8	32.8	92	30.7	1	4	270	0.00	29.845 
06:15	32.8	32.8	32.8	93	31.0	1	3	248	0.00	29.845 
06:20	32.7	32.7	32.7	93	30.9	1	3	248	0.00	29.845 
06:25	32.7	32.7	32.7	93	30.9	0	4	248	0.00	29.845 
06:30	32.7	32.7	32.7	93	30.9	0	2	248	0.00	29.838 
06:35	32.7	32.7	32.7	93	30.9	0	2	248	0.00	29.838 
06:40	32.7	32.7	32.7	93	30.9	1	2	248	0.00	29.838 
06:45	32.7	32.7	32.7	93	30.9	1	3	248	0.00	29.832 
06:50	32.7	32.7	32.7	93	30.9	1	3	248	0.00	29.832 
06:55	32.7	32.7	32.7	93	30.9	1	3	248	0.00	29.832 
07:00	32.7	32.7	32.7	93	30.9	1	5	248	0.00	29.831 
07:05	32.7	32.7	32.7	94	31.2	1	3	248	0.00	29.831 
07:10	32.7	32.7	32.7	94	31.2	1	4	248	0.00	29.831 
07:15	32.7	32.7	32.7	94	31.2	1	4	248	0.00	29.832 
07:20	32.7	32.7	32.7	94	31.2	1	4	248	0.00	29.832 
07:25	32.7	32.7	32.7	94	31.2	1	5	248	0.00	29.832 
07:30	32.7	32.7	32.7	94	31.2	1	4	248	0.00	29.838 
07:35	32.7	32.7	32.7	94	31.2	1	4	248	0.00	29.838 
07:40	32.7	32.7	32.7	94	31.2	1	4	248	0.00	29.838 
07:45	32.7	32.7	32.7	94	31.2	1	3	248	0.00	29.845 
07:50	32.7	32.7	32.7	94	31.2	2	5	248	0.00	29.845 
07:55	32.7	32.7	32.7	94	31.2	1	5	248	0.00	29.845 
08:00	32.7	32.7	32.7	94	31.2	2	6	248	0.00	29.843 
08:05	32.8	32.8	32.8	94	31.3	2	7	248	0.01	29.843 
08:10	32.8	32.8	32.8	94	31.3	2	4	248	0.00	29.843 
08:15	32.8	32.8	32.8	94	31.3	2	5	248	0.00	29.844 
08:20	32.8	32.8	32.8	94	31.3	3	6	248	0.00	29.844 
08:25	32.7	32.7	32.7	94	31.2	2	5	248	0.00	29.844 
08:30	32.7	32.7	32.7	94	31.2	2	4	248	0.00	29.846 
08:35	32.7	32.7	32.7	94	31.2	2	4	248	0.00	29.846 
08:40	32.7	32.7	32.7	94	31.2	2	5	248	0.00	29.846 
08:45	32.7	32.7	32.7	94	31.2	2	4	248	0.00	29.853 
08:50	32.7	32.7	32.7	94	31.2	2	4	248	0.00	29.853 
08:55	32.5	32.5	32.5	94	31.0	3	6	248	0.00	29.853 
09:00	32.5	28.7	32.5	94	31.0	4	10	270	0.00	29.852 
09:05	32.4	28.5	32.4	94	30.9	4	9	270	0.00	29.852 
09:10	32.5	32.5	32.5	93	30.7	3	6	270	0.00	29.852 
09:15	32.5	32.5	32.5	93	30.7	3	6	270	0.00	29.865 
09:20	32.5	32.5	32.5	93	30.7	3	5	270	0.00	29.865 
09:25	32.5	32.5	32.5	93	30.7	3	6	248	0.00	29.865 
09:30	32.5	32.5	32.5	92	30.4	3	6	270	0.00	29.875 
09:35	32.5	32.5	32.5	92	30.4	3	6	248	0.00	29.875 
09:40	32.5	32.5	32.5	91	30.2	3	7	270	0.00	29.875 
09:45	32.7	28.9	32.7	90	30.1	4	8	270	0.00	29.879 
09:50	32.8	32.8	32.8	88	29.6	3	5	270	0.00	29.879 
09:55	32.8	32.8	32.8	88	29.6	2	5	270	0.00	29.879 
10:00	32.5	28.7	32.5	87	29.1	4	7	270	0.00	29.895 
10:05	32.2	27.3	32.2	85	28.2	5	8	270	0.00	29.895 
10:10	32.1	27.2	32.1	84	27.8	5	9	270	0.00	29.895 
10:15	31.9	28.0	31.9	84	27.6	4	9	270	0.00	29.912 
10:20	31.8	27.8	31.8	84	27.5	4	10	270	0.00	29.912 
10:25	31.6	25.8	31.6	84	27.3	6	11	270	0.00	29.912 
10:30	31.6	26.6	31.6	84	27.3	5	9	270	0.00	29.926 
10:35	31.5	27.5	31.5	84	27.2	4	7	270	0.00	29.926 
10:40	31.6	27.6	31.6	84	27.3	4	13	270	0.01	29.926 
10:45	31.8	27.8	31.8	84	27.5	4	10	270	0.00	29.933 
10:50	32.1	32.1	32.1	82	27.2	3	7	270	0.00	29.933 
10:55	32.2	28.3	32.2	81	27.0	4	8	270	0.00	29.933 
11:00	32.2	28.3	32.2	79	26.4	4	7	270	0.00	29.946 
11:05	32.2	27.3	32.2	78	26.1	5	10	270	0.00	29.946 
11:10	32.1	27.2	32.1	76	25.4	5	10	270	0.00	29.946 
11:15	32.2	28.3	32.2	76	25.5	4	8	270	0.00	29.958 
11:20	32.2	28.3	32.2	75	25.2	4	7	270	0.00	29.958 
11:25	32.4	28.5	32.4	75	25.4	4	11	248	0.00	29.958 
11:30	32.4	28.5	32.4	76	25.7	4	11	248	0.00	29.968 
11:35	32.5	32.5	32.5	75	25.5	3	7	270	0.00	29.968 
11:40	32.5	32.5	32.5	74	25.2	3	10	270	0.01	29.968 
11:45	32.5	28.7	32.5	73	24.8	4	6	270	0.00	29.975 
11:50	32.4	28.5	32.4	73	24.7	4	7	270	0.00	29.975 
11:55	32.2	27.3	32.2	69	23.2	5	11	270	0.00	29.975 
12:00	32.2	27.3	32.2	69	23.2	5	11	270	0.00	29.979 
12:05	32.4	28.5	32.4	67	22.7	4	10	270	0.00	29.979 
12:10	32.2	28.3	32.2	68	22.8	4	8	270	0.00	29.979 
12:15	32.4	28.5	32.4	67	22.7	4	7	270	0.00	29.992 
12:20	32.4	28.5	32.4	67	22.7	4	10	270	0.00	29.992 
12:25	32.4	27.5	32.4	65	22.0	5	9	270	0.00	29.992 
12:30	32.4	28.5	32.4	65	22.0	4	9	270	0.00	29.993 
12:35	32.4	27.5	32.4	64	21.6	5	10	270	0.00	29.993 
12:40	32.2	27.3	32.2	63	21.0	5	13	270	0.00	29.993 
12:45	32.1	27.2	32.1	62	20.6	5	9	270	0.00	29.996 
12:50	32.4	32.4	32.4	62	20.9	3	6	270	0.00	29.996 
12:55	32.2	27.3	32.2	60	19.9	5	11	270	0.00	29.996 
13:00	32.5	32.5	32.5	62	20.9	3	7	270	0.00	30.002 
13:05	32.5	28.7	32.5	58	19.4	4	9	270	0.00	30.002 
13:10	32.5	28.7	32.5	59	19.8	4	9	270	0.00	30.002 
13:15	32.7	28.9	32.7	58	19.6	4	11	248	0.00	30.006 
13:20	32.9	32.9	32.9	60	20.6	3	9	270	0.00	30.006 
13:25	32.8	28.0	32.8	55	18.4	5	11	270	0.00	30.006 
13:30	32.8	28.0	32.8	54	18.0	5	11	270	0.00	30.007 
13:35	32.9	29.1	32.9	54	18.1	4	12	248	0.00	30.007 
13:40	33.1	33.1	33.1	53	17.9	3	7	270	0.00	30.007 
13:45	33.1	29.3	33.1	53	17.9	4	10	270	0.00	30.016 
13:50	32.9	28.1	32.9	51	16.8	5	12	248	0.00	30.016 
13:55	33.1	29.3	33.1	52	17.4	4	7	270	0.00	30.016 
14:00	33.2	29.5	33.2	49	16.1	4	10	270	0.00	30.023 
14:05	33.4	29.7	33.4	51	17.2	4	8	270	0.00	30.023 
14:10	33.1	27.5	33.1	48	15.6	6	13	270	0.00	30.023 
14:15	33.1	29.3	33.1	49	16.0	4	9	248	0.00	30.025 
14:20	33.2	29.5	33.2	49	16.1	4	11	270	0.00	30.025 
14:25	33.2	28.5	33.2	47	15.2	5	12	270	0.00	30.025 
14:30	33.4	29.7	33.4	48	15.8	4	10	270	0.00	30.034 
14:35	33.4	29.7	33.4	49	16.3	4	9	270	0.00	30.034 
14:40	33.4	29.7	33.4	47	15.4	4	7	270	0.00	30.034 
14:45	33.4	28.7	33.4	46	14.9	5	11	270	0.00	30.043 
14:50	33.1	27.5	33.1	46	14.6	6	11	270	0.00	30.043 
14:55	33.1	27.5	33.1	46	14.6	6	13	270	0.00	30.043 
15:00	33.1	28.4	33.1	47	15.1	5	10	270	0.00	30.049 
15:05	33.2	29.5	33.2	48	15.7	4	8	270	0.00	30.049 
15:10	33.4	29.7	33.4	49	16.3	4	10	270	0.00	30.049 
15:15	33.4	29.7	33.4	50	16.8	4	11	270	0.00	30.057 
15:20	33.4	29.7	33.4	49	16.3	4	9	270	0.00	30.057 
15:25	33.2	28.5	33.2	48	15.7	5	10	270	0.00	30.057 
15:30	33.4	28.7	33.4	50	16.8	5	13	270	0.00	30.068 
15:35	33.5	29.8	33.5	50	16.9	4	7	270	0.00	30.068 
15:40	33.5	28.8	33.5	47	15.5	5	11	270	0.00	30.068 
15:45	33.5	28.8	33.5	50	16.9	5	13	248	0.00	30.078 
15:50	33.4	28.7	33.4	50	16.8	5	11	270	0.00	30.078 
15:55	33.5	29.8	33.5	51	17.3	4	6	270	0.00	30.078 
16:00	33.7	30.0	33.7	50	17.1	4	10	270	0.00	30.085 
16:05	33.2	28.5	33.2	50	16.6	5	10	270	0.00	30.085 
16:10	33.1	28.4	33.1	51	17.0	5	7	270	0.00	30.085 
16:15	32.9	28.1	32.9	51	16.8	5	10	270	0.00	30.087 
16:20	32.9	32.9	32.9	52	17.2	3	9	270	0.00	30.087 
16:25	32.9	29.1	32.9	54	18.1	4	7	270	0.00	30.087 
16:30	32.9	29.1	32.9	55	18.5	4	10	248	0.00	30.096 
16:35	32.8	32.8	32.8	57	19.3	3	7	270	0.00	30.096 
16:40	32.7	32.7	32.7	58	19.6	3	9	248	0.00	30.096 
16:45	32.5	28.7	32.5	58	19.4	4	8	248	0.00	30.101 
16:50	32.4	28.5	32.4	57	18.9	4	9	270	0.00	30.101 
16:55	32.2	28.3	32.2	57	18.7	4	11	248	0.00	30.101 
17:00	32.2	32.2	32.2	58	19.1	3	11	248	0.00	30.115 
17:05	31.9	31.9	31.9	58	18.8	3	6	248	0.00	30.115 
17:10	31.8	26.8	31.8	58	18.7	5	12	270	0.00	30.115 
17:15	31.6	27.6	31.6	58	18.5	4	10	248	0.00	30.119 
17:20	31.5	26.5	31.5	58	18.4	5	13	248	0.00	30.119 
17:25	31.3	31.3	31.3	59	18.7	2	10	248	0.00	30.119 
17:30	31.0	25.9	31.0	58	18.0	5	11	248	0.00	30.127 
17:35	31.0	26.9	31.0	58	18.0	4	7	270	0.00	30.127 
17:40	30.9	30.9	30.9	58	17.9	3	7	248	0.00	30.127 
17:45	30.7	26.6	30.7	59	18.1	4	7	248	0.00	30.134 
17:50	30.6	30.6	30.6	60	18.4	3	8	248	0.00	30.134 
17:55	30.4	25.2	30.4	60	18.2	5	12	248	0.00	30.134 
18:00	30.4	26.2	30.4	59	17.8	4	11	248	0.00	30.141 
18:05	30.3	26.1	30.3	59	17.7	4	13	248	0.00	30.141 
18:10	30.1	30.1	30.1	59	17.5	3	7	248	0.00	30.141 
18:15	30.1	30.1	30.1	59	17.5	3	9	270	0.00	30.150 
18:20	30.0	25.8	30.0	59	17.4	4	12	248	0.00	30.150 
18:25	30.0	25.8	30.0	59	17.4	4	11	248	0.00	30.150 
18:30	30.0	25.8	30.0	59	17.4	4	10	248	0.00	30.155 
18:35	30.0	25.8	30.0	59	17.4	4	7	270	0.00	30.155 
18:40	29.8	29.8	29.8	59	17.2	3	9	248	0.00	30.155 
18:45	29.8	24.5	29.8	59	17.2	5	12	270	0.00	30.162 
18:50	29.8	25.5	29.8	59	17.2	4	11	248	0.00	30.162 
18:55	30.0	25.8	30.0	60	17.8	4	15	248	0.00	30.162 
19:00	29.8	29.8	29.8	60	17.6	3	9	248	0.00	30.165 
19:05	29.7	29.7	29.7	61	17.9	3	7	248	0.00	30.165 
19:10	29.7	29.7	29.7	62	18.3	3	9	248	0.00	30.165 
19:15	29.7	25.4	29.7	62	18.3	4	11	248	0.00	30.165 
19:20	29.8	25.5	29.8	62	18.4	4	9	248	0.00	30.165 
19:25	29.8	29.8	29.8	62	18.4	3	7	248	0.00	30.165 
19:30	29.7	29.7	29.7	62	18.3	3	9	248	0.00	30.167 
19:35	29.7	25.4	29.7	61	17.9	4	10	248	0.00	30.167 
19:40	29.8	29.8	29.8	60	17.6	3	9	248	0.00	30.167 
19:45	29.8	24.5	29.8	59	17.2	5	13	248	0.00	30.165 
19:50	29.8	25.5	29.8	59	17.2	4	7	248	0.00	30.165 
19:55	29.8	25.5	29.8	59	17.2	4	13	248	0.00	30.165 
20:00	29.7	29.7	29.7	59	17.1	3	6	248	0.00	30.166 
20:05	29.7	25.4	29.7	59	17.1	4	9	248	0.00	30.166 
20:10	29.7	29.7	29.7	59	17.1	3	10	248	0.00	30.166 
20:15	29.7	29.7	29.7	59	17.1	3	11	248	0.00	30.167 
20:20	29.7	25.4	29.7	59	17.1	4	12	248	0.00	30.167 
20:25	29.7	29.7	29.7	59	17.1	3	6	248	0.00	30.167 
20:30	29.8	25.5	29.8	60	17.6	4	11	248	0.00	30.165 
20:35	29.7	29.7	29.7	60	17.5	3	6	248	0.00	30.165 
20:40	29.7	29.7	29.7	61	17.9	3	9	248	0.00	30.165 
20:45	29.7	25.4	29.7	61	17.9	4	7	248	0.00	30.162 
20:50	29.8	29.8	29.8	62	18.4	3	7	248	0.00	30.162 
20:55	29.8	29.8	29.8	62	18.4	3	9	248	0.00	30.162 
21:00	29.8	29.8	29.8	62	18.4	3	6	248	0.00	30.156 
21:05	29.8	29.8	29.8	62	18.4	3	7	248	0.00	30.156 
21:10	30.0	30.0	30.0	62	18.6	3	7	248	0.00	30.156 
21:15	30.0	25.8	30.0	63	19.0	4	9	248	0.00	30.161 
21:20	30.0	30.0	30.0	62	18.6	3	7	248	0.00	30.161 
21:25	30.0	30.0	30.0	63	19.0	2	9	248	0.00	30.161 
21:30	30.0	30.0	30.0	62	18.6	3	9	248	0.00	30.158 
21:35	30.1	30.1	30.1	62	18.7	2	7	248	0.00	30.158 
21:40	30.1	30.1	30.1	62	18.7	3	10	248	0.00	30.158 
21:45	30.3	30.3	30.3	62	18.9	3	6	248	0.00	30.154 
21:50	30.4	30.4	30.4	62	19.0	3	9	248	0.00	30.154 
21:55	30.3	30.3	30.3	62	18.9	2	5	248	0.00	30.154 
22:00	30.3	30.3	30.3	62	18.9	2	9	248	0.00	30.153 
22:05	30.3	30.3	30.3	62	18.9	3	9	248	0.00	30.153 
22:10	30.3	30.3	30.3	62	18.9	2	6	248	0.00	30.153 
22:15	30.4	30.4	30.4	62	19.0	3	7	248	0.00	30.151 
22:20	30.4	30.4	30.4	62	19.0	3	8	248	0.00	30.151 
22:25	30.4	30.4	30.4	63	19.3	2	5	248	0.00	30.151 
22:30	30.4	30.4	30.4	63	19.3	3	7	248	0.00	30.152 
22:35	30.3	30.3	30.3	64	19.6	2	6	248	0.00	30.152 
22:40	30.3	30.3	30.3	64	19.6	2	9	248	0.00	30.152 
22:45	30.4	30.4	30.4	65	20.1	2	6	248	0.00	30.152 
22:50	30.4	30.4	30.4	65	20.1	3	7	248	0.00	30.152 
22:55	30.4	30.4	30.4	65	20.1	2	5	248	0.00	30.152 
23:00	30.6	30.6	30.6	65	20.3	3	7	248	0.00	30.151 
23:05	30.6	30.6	30.6	65	20.3	2	6	225	0.00	30.151 
23:10	30.6	30.6	30.6	65	20.3	1	6	248	0.00	30.151 
23:15	30.6	30.6	30.6	65	20.3	1	6	248	0.00	30.152 
23:20	30.6	30.6	30.6	66	20.6	2	8	248	0.00	30.152 
23:25	30.6	30.6	30.6	66	20.6	2	7	248	0.00	30.152 
23:30	30.7	30.7	30.7	66	20.7	3	10	248	0.00	30.151 
23:35	30.7	30.7	30.7	66	20.7	2	7	248	0.00	30.151 
23:40	30.7	30.7	30.7	66	20.7	2	6	270	0.00	30.151 
23:45	30.7	30.7	30.7	67	21.1	2	5	248	0.00	30.148 
23:50	30.7	30.7	30.7	67	21.1	1	4	248	0.00	30.148 
23:55	30.6	30.6	30.6	68	21.3	2	5	248	0.00	30.148 

CoCoRaHS
IN-AL-39
A2 Web Hosting
Creative Commons License
GoDaddy
search engine by freefind advanced

loaded 2018-11-13 17:02:33 • last modified 2010-11-18 10:43:29
Privacy PolicyDisclaimer
• wx.awcolley.com is powered by PmWiki v.2002016 •
• all content (unless otherwise noted) © 2018 A W Colley